• Join FlightAware (Why Join?)
  • Login
  • US Flag 
04:11AM EDT


 

Airport Tracker/Info


-or-


 

Live Flight TrackerFlight Track Log ✈ N273SK ✈ 26-Apr-2013 ✈ KLGA - KORF

Flight Track Log - Related Links

Times and Time Zones

All times are in EDT time to prevent confusion due to time zone crossing. See the N273SK flight status page for this flight to view local times or setup timezone preferences in your user account.

Time Position Orientation Groundspeed Altitude Reporting Facility
EDT Latitude Longitude Course Direction KTS MPH feet Rate Location/Type
07:07PM 40.7500 -73.8167 208° Southwest 158 182 1,800  Level New York TRACON
07:08PM 40.7833 -73.7667 49° Northeast 208 239 3,500 1,860 Climbing New York TRACON
07:09PM 40.8500 -73.7667 360° North 261 300 5,600 1,440 Climbing New York TRACON
07:10PM 40.5072 -73.8446 208° Southwest  Level FlightAware Approximate
07:10PM 40.8167 -73.8333 237° Southwest 272 313 6,300  Level New York TRACON
07:11PM 40.4421 -73.8908 208° Southwest  Level FlightAware Approximate
07:11PM 40.7500 -73.8167 169° South 274 315 7,000  Level New York TRACON
07:12PM 40.3771 -73.9368 208° Southwest  Level FlightAware Approximate
07:12PM 40.6667 -73.7833 163° South 262 302 7,000  Level New York TRACON
07:13PM 40.6000 -73.8000 191° South 304 350 7,100  Climbing New York TRACON
07:14PM 40.5333 -73.8500 210° Southwest 270 311 7,000 -120 Descending New York TRACON
07:16PM 40.4379 -73.9105 206° Southwest  Level FlightAware Approximate
07:23PM 39.9990 -74.2509 215° Southwest  Level FlightAware Approximate
07:24PM 39.9384 -74.3061 215° Southwest  Level FlightAware Approximate
07:25PM 39.8778 -74.3612 215° Southwest  Level FlightAware Approximate
07:26PM 39.8172 -74.4162 215° Southwest  Level FlightAware Approximate
07:27PM 39.7562 -74.4705 214° Southwest  Level FlightAware Approximate
07:27PM 39.7131 -74.5342 216° Southwest 263 303 6,000  Level Washington Center
07:28PM 39.6952 -74.5247 214° Southwest  Level FlightAware Approximate
07:29PM 39.6147 -74.5948 205° Southwest  Level Estimated
07:29PM 39.6355 -74.5812 218° Southwest  Level FlightAware Approximate
07:30PM 39.5770 -74.6397 218° Southwest  Level FlightAware Approximate
07:31PM 39.5185 -74.6982 218° Southwest  Level FlightAware Approximate
07:31PM 39.4503 -74.7825 205° Southwest 268 308 6,000  Level Washington Center
07:32PM 39.4611 -74.7531 216° Southwest  Level FlightAware Approximate
07:33PM 39.3767 -74.8249 204° Southwest  Level Estimated
07:36PM 39.1839 -74.8583 205° Southwest  Level Estimated
07:37PM 39.1223 -74.8957 205° Southwest  Level Estimated
07:40PM 38.9411 -75.0740 204° Southwest  Level Estimated
07:41PM 38.8788 -75.1094 204° Southwest  Level Estimated
07:42PM 38.8165 -75.1446 204° Southwest  Level Estimated
07:43PM 38.9500 -75.5500 204° Southwest 257 296 6,000  Level Potomac TRACON
07:43PM 38.7542 -75.1798 204° Southwest  Level Estimated
07:44PM 38.9000 -75.6333 232° Southwest 255 293 6,000  Level Potomac TRACON
07:44PM 38.6920 -75.2150 204° Southwest  Level Estimated
07:44PM 38.8736 -75.6850 237° Southwest 253 291 6,000  Level Washington Center
07:45PM 38.6296 -75.2501 204° Southwest  Level Estimated
07:45PM 38.8339 -75.7650 238° Southwest 242 278 6,000  Level Washington Center
07:46PM 38.5673 -75.2851 204° Southwest  Level Estimated
07:46PM 38.7964 -75.8367 236° Southwest 246 283 6,100  Level Washington Center
07:47PM 38.5050 -75.3201 204° Southwest  Level Estimated
07:47PM 38.7525 -75.9136 234° Southwest 256 295 7,300  Level Washington Center
07:48PM 38.4426 -75.3550 204° Southwest  Level Estimated
07:48PM 38.7167 -75.9856 237° Southwest 273 314 9,100  Level Washington Center
07:49PM 38.6561 -76.0569 223° Southwest 284 327 10,000 420 Climbing Washington Center
07:50PM 38.5806 -76.1308 217° Southwest 315 362 10,000  Level Washington Center
07:51PM 38.4989 -76.2044 215° Southwest 346 398 10,000  Level Washington Center
07:52PM 38.4111 -76.2567 205° Southwest 346 398 10,000  Level Washington Center
07:53PM 38.3131 -76.2664 184° South 346 398 10,000  Level Washington Center
07:54PM 38.2192 -76.2683 181° South 346 398 10,000  Level Washington Center
07:55PM 38.1192 -76.2753 183° South 354 407 10,000  Level Washington Center
07:56PM 38.0211 -76.2850 184° South 360 414 10,000  Level Washington Center
07:57PM 37.9208 -76.2944 184° South 360 414 10,000  Level Washington Center
07:58PM 37.8500 -76.3044 186° South 352 405 10,000  Level Washington Center
07:58PM 37.8250 -76.3017 175° South 360 414 10,000  Level Washington Center
07:59PM 37.7539 -76.3142 188° South 347 399 10,000  Level Washington Center
07:59PM 37.7289 -76.3111 174° South 355 409 10,000  Level Washington Center
08:00PM 37.6600 -76.3183 185° South 344 396 10,000  Level Washington Center
08:00PM 37.6328 -76.3181 180° South 349 402 10,000 -780 Level Washington Center
08:01PM 37.5744 -76.3203 182° South 292 336 9,200 -1,620 Descending Washington Center
08:02PM 37.4850 -76.3064 173° South 278 320 7,000 -1,920 Descending Washington Center
08:03PM 37.4036 -76.2925 172° South 273 314 5,100 -1,020 Descending Washington Center
08:04PM 37.3369 -76.2814 172° South 258 297 5,000 -60 Descending Washington Center
08:05PM 37.2556 -76.2650 171° South 267 307 5,000  Level Washington Center
08:06PM 37.1911 -76.2567 174° South 262 302 5,000  Level Washington Center
08:07PM 37.1181 -76.2431 172° South 263 303 5,000  Level Washington Center
08:08PM 37.0472 -76.2294 171° South 266 306 5,000 -600 Level Washington Center
08:09PM 36.9700 -76.2417 187° South 263 303 3,900 -1,260 Descending Washington Center
08:10PM 36.9133 -76.3011 220° Southwest 244 281 2,400 -1,380 Descending Washington Center